Terminal Aerodrome Forecast
Issued by NWS Wilmington, OH

Current Version | Previous Version | Graphics & Text | Print | Product List | Glossary On
Versions: 1 2 3 4 5 6 7 8 9 10 11 12 13 14 15 16 17
000
FTUS41 KILN 080500 RRA
TAFDAY
TAF
KDAY 080541Z 0806/0906 21010KT P6SM SCT040 BKN200
     FM081300 21012G20KT 5SM -SHRA BR OVC035
     FM081400 22012G24KT P6SM BKN035
     FM081800 24014G26KT P6SM VCTS BKN035CB
     FM082100 24014G26KT P6SM VCSH BKN040
     FM082300 27009KT P6SM BKN040=

USA.gov is the U.S. government's official web portal to all federal, state and local government web resources and services.